createdAt,value
2018-08-08T00:00:15.381Z,19.91
2018-08-08T00:02:44.587Z,19.92
2018-08-08T00:05:14.208Z,19.93
2018-08-08T00:07:43.469Z,19.90
2018-08-08T00:10:12.758Z,19.83
2018-08-08T00:12:42.273Z,19.76
2018-08-08T00:15:13.117Z,19.65
2018-08-08T00:17:43.668Z,19.53
2018-08-08T00:20:13.268Z,19.49
2018-08-08T00:22:42.636Z,19.49
2018-08-08T00:25:13.570Z,19.52
2018-08-08T00:27:43.206Z,19.50
2018-08-08T00:30:13.746Z,19.47
2018-08-08T00:32:43.420Z,19.46
2018-08-08T00:35:12.723Z,19.48
2018-08-08T00:37:41.920Z,19.48
2018-08-08T00:40:14.214Z,19.46
2018-08-08T00:42:44.407Z,19.37
2018-08-08T00:45:15.223Z,19.28
2018-08-08T00:47:45.267Z,19.20
2018-08-08T00:50:15.600Z,19.19
2018-08-08T00:52:45.210Z,19.18
2018-08-08T00:55:14.409Z,19.19
2018-08-08T00:57:43.636Z,19.24
2018-08-08T01:00:15.168Z,19.27
2018-08-08T01:02:44.628Z,19.28
2018-08-08T01:05:14.993Z,19.28
2018-08-08T01:07:45.031Z,19.21
2018-08-08T01:10:14.276Z,19.14
2018-08-08T01:12:43.544Z,19.09
2018-08-08T01:15:13.729Z,19.03
2018-08-08T01:17:43.074Z,18.97
2018-08-08T01:20:13.784Z,18.91
2018-08-08T01:22:43.022Z,18.83
2018-08-08T01:25:14.717Z,18.83
2018-08-08T01:27:44.117Z,18.87
2018-08-08T01:30:15.973Z,18.86
2018-08-08T01:32:45.230Z,18.85
2018-08-08T01:35:14.473Z,18.85
2018-08-08T01:37:43.690Z,18.87
2018-08-08T01:40:15.216Z,18.87
2018-08-08T01:42:44.636Z,18.88
2018-08-08T01:45:15.375Z,18.89
2018-08-08T01:47:44.610Z,18.88
2018-08-08T01:50:15.000Z,18.83
2018-08-08T01:52:44.273Z,18.81
2018-08-08T01:55:14.364Z,18.80
2018-08-08T01:57:43.528Z,18.79
2018-08-08T02:00:14.598Z,18.74
2018-08-08T02:02:43.810Z,18.72
2018-08-08T02:05:13.171Z,18.71
2018-08-08T02:07:42.573Z,18.69
2018-08-08T02:10:17.609Z,18.63
2018-08-08T02:12:47.082Z,18.60
2018-08-08T02:15:16.326Z,18.60
2018-08-08T02:17:45.586Z,18.60
2018-08-08T02:20:15.212Z,18.60
2018-08-08T02:22:44.845Z,18.59
2018-08-08T02:25:15.367Z,18.57
2018-08-08T02:27:44.660Z,18.57
2018-08-08T02:30:22.276Z,18.57
2018-08-08T02:32:52.684Z,18.51
2018-08-08T02:35:22.389Z,18.52
2018-08-08T02:37:51.683Z,18.49
2018-08-08T02:40:20.974Z,18.45
2018-08-08T02:42:50.210Z,18.38
2018-08-08T02:45:20.301Z,18.32
2018-08-08T02:47:49.537Z,18.31
2018-08-08T02:50:21.113Z,18.31
2018-08-08T02:52:50.516Z,18.30
2018-08-08T02:55:19.754Z,18.30
2018-08-08T02:57:49.044Z,18.28
2018-08-08T03:00:19.605Z,18.29
2018-08-08T03:02:48.822Z,18.27
2018-08-08T03:05:18.097Z,18.24
2018-08-08T03:07:47.324Z,18.21
2018-08-08T03:10:17.625Z,18.20
2018-08-08T03:12:47.126Z,18.22
2018-08-08T03:15:18.170Z,18.20
2018-08-08T03:17:47.392Z,18.13
2018-08-08T03:20:17.424Z,18.11
2018-08-08T03:22:47.705Z,18.08
2018-08-08T03:25:17.716Z,18.04
2018-08-08T03:27:47.460Z,17.99
2018-08-08T03:30:19.112Z,17.94
2018-08-08T03:32:48.426Z,17.89
2018-08-08T03:35:18.185Z,17.88
2018-08-08T03:37:47.493Z,17.87
2018-08-08T03:40:17.841Z,17.85
2018-08-08T03:42:47.163Z,17.82
2018-08-08T03:45:17.089Z,17.85
2018-08-08T03:47:46.354Z,17.86
2018-08-08T03:50:15.633Z,17.88
2018-08-08T03:52:45.341Z,17.90
2018-08-08T03:55:14.661Z,17.92
2018-08-08T03:57:44.026Z,17.93
2018-08-08T04:00:15.522Z,17.96
2018-08-08T04:02:45.253Z,17.90
2018-08-08T04:05:14.427Z,17.91
2018-08-08T04:07:43.704Z,17.92
2018-08-08T04:10:14.014Z,17.89
2018-08-08T04:12:43.244Z,17.91
2018-08-08T04:15:18.431Z,17.93
2018-08-08T04:17:50.656Z,17.99
2018-08-08T04:20:24.314Z,18.06
2018-08-08T04:22:53.526Z,18.13
2018-08-08T04:25:22.720Z,18.15
2018-08-08T04:27:52.263Z,18.19
2018-08-08T04:30:21.967Z,18.23
2018-08-08T04:32:51.185Z,18.30
2018-08-08T04:35:20.453Z,18.35
2018-08-08T04:37:49.966Z,18.42
2018-08-08T04:40:20.182Z,18.46
2018-08-08T04:42:50.001Z,18.50
2018-08-08T04:45:19.638Z,18.60
2018-08-08T04:47:48.908Z,18.69
2018-08-08T04:50:18.560Z,18.73
2018-08-08T04:52:47.789Z,18.78
2018-08-08T04:55:17.645Z,18.92
2018-08-08T04:57:46.979Z,19.03
2018-08-08T05:00:17.656Z,19.02
2018-08-08T05:02:46.929Z,19.04
2018-08-08T05:05:16.474Z,19.06
2018-08-08T05:07:45.690Z,19.10
2018-08-08T05:10:14.909Z,19.12
2018-08-08T05:12:44.257Z,19.16
2018-08-08T05:15:18.502Z,19.24
2018-08-08T05:17:48.972Z,19.32
2018-08-08T05:20:18.263Z,19.40
2018-08-08T05:22:48.314Z,19.47
2018-08-08T05:25:17.862Z,19.60
2018-08-08T05:27:47.540Z,19.66
2018-08-08T05:30:19.133Z,19.72
2018-08-08T05:32:48.760Z,19.83
2018-08-08T05:35:19.540Z,19.95
2018-08-08T05:37:49.005Z,20.13
2018-08-08T05:40:20.343Z,20.24
2018-08-08T05:42:50.652Z,20.34
2018-08-08T05:45:20.143Z,20.50
2018-08-08T05:47:50.983Z,20.54
2018-08-08T05:50:20.260Z,20.58
2018-08-08T05:52:49.548Z,20.63
2018-08-08T05:55:19.978Z,20.79
2018-08-08T05:57:49.617Z,20.91
2018-08-08T06:00:27.385Z,21.03
2018-08-08T06:02:56.804Z,20.97
2018-08-08T06:05:26.115Z,20.98
2018-08-08T06:07:55.579Z,21.19
2018-08-08T06:10:24.781Z,21.55
2018-08-08T06:12:53.921Z,21.91
2018-08-08T06:15:23.136Z,22.17
2018-08-08T06:17:52.392Z,22.35
2018-08-08T06:20:22.526Z,22.50
2018-08-08T06:22:51.905Z,22.55
2018-08-08T06:25:21.157Z,22.35
2018-08-08T06:27:50.416Z,22.33
2018-08-08T06:30:22.913Z,22.29
2018-08-08T06:32:52.931Z,22.48
2018-08-08T06:35:24.190Z,22.65
2018-08-08T06:37:54.053Z,22.79
2018-08-08T06:40:23.265Z,23.00
2018-08-08T06:42:52.527Z,23.15
2018-08-08T06:45:23.092Z,23.28
2018-08-08T06:47:52.346Z,23.40
2018-08-08T06:50:21.556Z,23.41
2018-08-08T06:52:51.499Z,23.46
2018-08-08T06:55:20.728Z,23.47
2018-08-08T06:57:50.019Z,23.55
2018-08-08T07:00:22.027Z,23.56
2018-08-08T07:02:51.284Z,23.52
2018-08-08T07:05:20.614Z,23.40
2018-08-08T07:07:50.733Z,23.43
2018-08-08T07:10:19.948Z,23.53
2018-08-08T07:12:49.200Z,23.58
2018-08-08T07:15:19.279Z,23.55
2018-08-08T07:17:48.580Z,23.59
2018-08-08T07:20:18.509Z,23.68
2018-08-08T07:22:47.880Z,23.83
2018-08-08T07:25:18.458Z,24.03
2018-08-08T07:27:47.963Z,24.15
2018-08-08T07:30:18.599Z,24.21
2018-08-08T07:32:47.998Z,24.35
2018-08-08T07:35:17.296Z,24.50
2018-08-08T07:37:47.341Z,24.65
2018-08-08T07:40:17.856Z,24.70
2018-08-08T07:42:47.052Z,24.83
2018-08-08T07:45:20.153Z,24.96
2018-08-08T07:47:49.621Z,25.04
2018-08-08T07:50:18.870Z,25.04
2018-08-08T07:52:48.144Z,24.88
2018-08-08T07:55:18.374Z,24.95
2018-08-08T07:57:47.676Z,25.00
2018-08-08T08:00:20.674Z,25.10
2018-08-08T08:02:50.264Z,25.33
2018-08-08T08:05:20.411Z,25.60
2018-08-08T08:07:50.546Z,25.96
2018-08-08T08:10:19.736Z,26.14
2018-08-08T08:12:48.992Z,26.28
2018-08-08T08:15:18.225Z,26.43
2018-08-08T08:17:47.417Z,26.55
2018-08-08T08:20:18.014Z,26.59
2018-08-08T08:22:48.244Z,26.66
2018-08-08T08:25:17.553Z,26.73
2018-08-08T08:27:46.698Z,26.72
2018-08-08T08:30:17.982Z,26.94
2018-08-08T08:32:47.497Z,27.09
2018-08-08T08:35:16.700Z,27.18
2018-08-08T08:37:45.913Z,27.38
2018-08-08T08:40:15.272Z,27.43
2018-08-08T08:42:44.684Z,27.55
2018-08-08T08:45:13.978Z,27.68
2018-08-08T08:47:43.114Z,27.82
2018-08-08T08:50:12.351Z,28.03
2018-08-08T08:52:41.522Z,28.19
2018-08-08T08:55:11.575Z,28.35
2018-08-08T08:57:40.714Z,28.52
2018-08-08T09:00:12.353Z,28.68
2018-08-08T09:02:41.835Z,28.65
2018-08-08T09:05:12.064Z,28.80
2018-08-08T09:07:41.430Z,28.99
2018-08-08T09:10:11.288Z,29.05
2018-08-08T09:12:41.187Z,29.16
2018-08-08T09:15:12.241Z,29.41
2018-08-08T09:17:41.487Z,29.40
2018-08-08T09:20:10.809Z,29.34
2018-08-08T09:22:39.947Z,29.42
2018-08-08T09:25:35.436Z,29.80
2018-08-08T09:28:04.628Z,30.03
2018-08-08T09:30:33.864Z,30.23
2018-08-08T09:33:08.274Z,30.17
2018-08-08T09:35:37.396Z,30.34
2018-08-08T09:38:06.632Z,30.39
2018-08-08T09:40:35.862Z,30.39
2018-08-08T09:43:05.048Z,30.51
2018-08-08T09:45:34.243Z,30.69
2018-08-08T09:48:03.620Z,30.63
2018-08-08T09:50:32.780Z,30.65
2018-08-08T09:53:02.000Z,30.75
2018-08-08T09:55:31.215Z,30.89
2018-08-08T09:58:00.388Z,31.27
2018-08-08T10:00:34.843Z,31.52
2018-08-08T10:03:11.146Z,31.64
2018-08-08T10:05:43.503Z,31.87
2018-08-08T10:08:13.319Z,32.04
2018-08-08T10:10:42.492Z,32.28
2018-08-08T10:13:11.699Z,32.28
2018-08-08T10:15:40.932Z,32.42
2018-08-08T10:18:11.111Z,32.58
2018-08-08T10:20:40.322Z,32.67
2018-08-08T10:23:09.716Z,32.74
2018-08-08T10:25:38.878Z,32.90
2018-08-08T10:28:08.315Z,32.91
2018-08-08T10:30:37.501Z,32.87
2018-08-08T10:33:06.776Z,33.18
2018-08-08T10:35:35.998Z,33.57
2018-08-08T10:38:05.174Z,33.67
2018-08-08T10:40:34.371Z,33.67
2018-08-08T10:43:03.571Z,33.73
2018-08-08T10:45:32.780Z,33.89
2018-08-08T10:48:01.999Z,33.81
2018-08-08T10:50:31.147Z,34.09
2018-08-08T10:53:00.280Z,34.21
2018-08-08T10:55:29.458Z,33.85
2018-08-08T10:57:58.653Z,33.58
2018-08-08T11:00:27.807Z,33.95
2018-08-08T11:02:57.005Z,34.20
2018-08-08T11:05:26.230Z,34.24
2018-08-08T11:07:55.385Z,34.24
2018-08-08T11:10:24.877Z,34.52
2018-08-08T11:12:54.150Z,34.74
2018-08-08T11:15:23.320Z,34.89
2018-08-08T11:17:52.476Z,34.99
2018-08-08T11:20:21.660Z,34.82
2018-08-08T11:22:50.775Z,34.96
2018-08-08T11:25:19.933Z,35.09
2018-08-08T11:27:49.197Z,34.91
2018-08-08T11:30:18.444Z,34.92
2018-08-08T11:32:47.514Z,34.90
2018-08-08T11:35:16.749Z,34.88
2018-08-08T11:37:45.885Z,34.88
2018-08-08T11:40:15.057Z,34.83
2018-08-08T11:42:44.278Z,34.75
2018-08-08T11:45:13.450Z,34.85
2018-08-08T11:47:42.621Z,34.86
2018-08-08T11:50:11.772Z,34.89
2018-08-08T11:52:40.911Z,34.99
2018-08-08T11:55:11.056Z,35.09
2018-08-08T11:57:40.304Z,35.05
2018-08-08T12:00:09.482Z,35.16
2018-08-08T12:02:38.618Z,35.06
2018-08-08T12:05:08.713Z,35.01
2018-08-08T12:07:37.909Z,34.81
2018-08-08T12:10:08.140Z,34.78
2018-08-08T12:12:37.298Z,34.95
2018-08-08T12:15:08.060Z,34.89
2018-08-08T12:17:37.266Z,34.87
2018-08-08T12:20:06.498Z,34.85
2018-08-08T12:22:35.664Z,34.88
2018-08-08T12:25:04.973Z,34.90
2018-08-08T12:27:34.121Z,35.07
2018-08-08T12:30:03.738Z,34.85
2018-08-08T12:32:32.875Z,35.00
2018-08-08T12:35:02.133Z,35.00
2018-08-08T12:37:31.310Z,34.95
2018-08-08T12:40:00.482Z,35.08
2018-08-08T12:42:29.712Z,35.09
2018-08-08T12:44:58.970Z,35.16
2018-08-08T12:47:28.080Z,35.14
2018-08-08T12:49:57.309Z,35.31
2018-08-08T12:52:26.523Z,35.30
2018-08-08T12:54:55.634Z,35.27
2018-08-08T12:57:24.835Z,35.28
2018-08-08T12:59:53.972Z,35.32
2018-08-08T13:02:23.126Z,35.37
2018-08-08T13:04:52.319Z,35.24
2018-08-08T13:07:21.502Z,35.20
2018-08-08T13:09:50.668Z,35.08
2018-08-08T13:12:19.829Z,35.08
2018-08-08T13:14:48.977Z,35.07
2018-08-08T13:17:18.209Z,35.01
2018-08-08T13:19:47.380Z,35.08
2018-08-08T13:22:16.563Z,35.27
2018-08-08T13:24:45.760Z,35.19
2018-08-08T13:27:14.964Z,35.34
2018-08-08T13:29:44.109Z,35.39
2018-08-08T13:32:13.293Z,35.45
2018-08-08T13:34:42.467Z,35.44
2018-08-08T13:37:11.638Z,35.39
2018-08-08T13:39:40.765Z,35.45
2018-08-08T13:42:10.045Z,35.50
2018-08-08T13:44:39.258Z,35.56
2018-08-08T13:47:08.606Z,35.65
2018-08-08T13:49:37.776Z,35.55
2018-08-08T13:52:07.117Z,35.37
2018-08-08T13:54:36.266Z,35.37
2018-08-08T13:57:06.235Z,35.41
2018-08-08T13:59:35.916Z,35.49
2018-08-08T14:02:05.166Z,35.53
2018-08-08T14:04:34.394Z,35.56
2018-08-08T14:07:03.632Z,35.68
2018-08-08T14:09:32.851Z,35.62
2018-08-08T14:12:02.068Z,35.45
2018-08-08T14:14:31.234Z,35.42
2018-08-08T14:17:00.399Z,35.39
2018-08-08T14:19:29.631Z,35.38
2018-08-08T14:21:58.785Z,35.47
2018-08-08T14:24:27.946Z,35.50
2018-08-08T14:26:57.193Z,35.43
2018-08-08T14:29:26.339Z,35.36
2018-08-08T14:31:55.517Z,35.36
2018-08-08T14:34:24.737Z,35.20
2018-08-08T14:36:53.899Z,35.22
2018-08-08T14:39:23.084Z,35.15
2018-08-08T14:41:52.339Z,35.16
2018-08-08T14:44:21.514Z,35.19
2018-08-08T14:46:50.694Z,35.14
2018-08-08T14:49:19.911Z,35.09
2018-08-08T14:51:49.018Z,35.13
2018-08-08T14:54:18.214Z,35.09
2018-08-08T14:56:47.385Z,35.08
2018-08-08T14:59:16.546Z,35.16
2018-08-08T15:01:45.683Z,35.13
2018-08-08T15:04:15.252Z,35.03
2018-08-08T15:06:44.412Z,35.07
2018-08-08T15:09:14.896Z,34.95
2018-08-08T15:11:44.095Z,34.99
2018-08-08T15:14:13.222Z,34.98
2018-08-08T15:16:42.796Z,34.98
2018-08-08T15:19:12.057Z,34.97
2018-08-08T15:21:41.245Z,34.93
2018-08-08T15:24:10.436Z,34.88
2018-08-08T15:26:39.645Z,34.83
2018-08-08T15:29:08.918Z,34.79
2018-08-08T15:31:38.148Z,34.83
2018-08-08T15:34:07.213Z,34.78
2018-08-08T15:36:36.535Z,34.69
2018-08-08T15:39:07.882Z,34.79
2018-08-08T15:41:37.102Z,34.68
2018-08-08T15:44:06.302Z,34.68
2018-08-08T15:46:35.445Z,34.57
2018-08-08T15:49:04.689Z,34.53
2018-08-08T15:51:33.903Z,34.54
2018-08-08T15:54:03.044Z,34.55
2018-08-08T15:56:32.218Z,34.55
2018-08-08T15:59:01.377Z,34.39
2018-08-08T16:01:30.529Z,34.25
2018-08-08T16:03:59.904Z,34.02
2018-08-08T16:06:29.049Z,33.76
2018-08-08T16:08:58.170Z,33.59
2018-08-08T16:11:27.326Z,33.45
2018-08-08T16:13:56.477Z,33.43
2018-08-08T16:16:25.673Z,33.37
2018-08-08T16:18:54.805Z,33.35
2018-08-08T16:21:23.974Z,33.42
2018-08-08T16:23:53.212Z,33.47
2018-08-08T16:26:22.394Z,33.48
2018-08-08T16:28:51.557Z,33.41
2018-08-08T16:31:20.749Z,33.36
2018-08-08T16:33:49.867Z,33.33
2018-08-08T16:36:19.034Z,33.27
2018-08-08T16:38:48.165Z,33.28
2018-08-08T16:41:17.321Z,33.28
2018-08-08T16:43:46.480Z,33.32
2018-08-08T16:46:15.611Z,33.27
2018-08-08T16:48:44.772Z,33.24
2018-08-08T16:51:13.951Z,33.23
2018-08-08T16:53:43.169Z,33.20
2018-08-08T16:56:12.304Z,33.14
2018-08-08T16:58:41.466Z,33.11
2018-08-08T17:01:10.622Z,33.06
2018-08-08T17:03:39.765Z,32.99
2018-08-08T17:06:08.956Z,32.96
2018-08-08T17:08:38.358Z,32.91
2018-08-08T17:11:07.642Z,32.81
2018-08-08T17:13:36.785Z,32.77
2018-08-08T17:16:06.429Z,32.70
2018-08-08T17:18:35.613Z,32.64
2018-08-08T17:21:04.746Z,32.57
2018-08-08T17:23:33.864Z,32.50
2018-08-08T17:26:03.251Z,32.39
2018-08-08T17:28:32.401Z,32.28
2018-08-08T17:31:01.628Z,32.20
2018-08-08T17:33:30.995Z,32.08
2018-08-08T17:36:00.130Z,31.92
2018-08-08T17:38:29.313Z,31.79
2018-08-08T17:40:58.471Z,31.65
2018-08-08T17:43:27.819Z,31.51
2018-08-08T17:45:56.814Z,31.41
2018-08-08T17:48:26.086Z,31.32
2018-08-08T17:50:55.229Z,31.23
2018-08-08T17:53:24.468Z,31.17
2018-08-08T17:55:53.640Z,31.07
2018-08-08T17:58:22.813Z,30.97
2018-08-08T18:00:52.018Z,30.89
2018-08-08T18:03:21.196Z,30.87
2018-08-08T18:05:51.959Z,30.65
2018-08-08T18:08:22.095Z,30.53
2018-08-08T18:10:52.299Z,30.46
2018-08-08T18:13:21.524Z,30.37
2018-08-08T18:15:50.704Z,30.27
2018-08-08T18:18:19.893Z,30.13
2018-08-08T18:20:49.058Z,30.04
2018-08-08T18:23:18.245Z,29.95
2018-08-08T18:25:47.432Z,29.90
2018-08-08T18:28:16.624Z,29.85
2018-08-08T18:30:45.774Z,29.75
2018-08-08T18:33:14.941Z,29.70
2018-08-08T18:35:44.122Z,29.51
2018-08-08T18:38:13.393Z,29.42
2018-08-08T18:40:42.508Z,29.34
2018-08-08T18:43:11.673Z,29.20
2018-08-08T18:45:40.842Z,29.10
2018-08-08T18:48:10.132Z,29.05
2018-08-08T18:50:39.252Z,28.96
2018-08-08T18:53:08.698Z,28.86
2018-08-08T18:55:37.869Z,28.78
2018-08-08T18:58:07.259Z,28.73
2018-08-08T19:00:36.476Z,28.70
2018-08-08T19:03:06.768Z,28.69
2018-08-08T19:05:35.976Z,28.68
2018-08-08T19:08:05.200Z,28.65
2018-08-08T19:10:34.382Z,28.54
2018-08-08T19:13:03.546Z,28.42
2018-08-08T19:15:32.708Z,28.34
2018-08-08T19:18:01.952Z,28.21
2018-08-08T19:20:31.489Z,28.13
2018-08-08T19:23:00.685Z,28.08
2018-08-08T19:25:30.003Z,28.04
2018-08-08T19:27:59.138Z,28.00
2018-08-08T19:30:28.304Z,27.95
2018-08-08T19:32:57.489Z,27.91
2018-08-08T19:35:26.705Z,27.85
2018-08-08T19:37:56.562Z,27.80
2018-08-08T19:40:25.761Z,27.74
2018-08-08T19:42:54.977Z,27.85
2018-08-08T19:45:24.681Z,27.83
2018-08-08T19:47:53.893Z,27.84
2018-08-08T19:50:23.082Z,27.88
2018-08-08T19:52:52.256Z,27.95
2018-08-08T19:55:21.414Z,27.88
2018-08-08T19:57:50.682Z,27.78
2018-08-08T20:00:19.897Z,27.72
2018-08-08T20:02:49.192Z,27.66
2018-08-08T20:05:18.356Z,27.57
2018-08-08T20:07:47.516Z,27.49
2018-08-08T20:10:16.694Z,27.38
2018-08-08T20:12:45.861Z,27.32
2018-08-08T20:15:15.054Z,27.29
2018-08-08T20:17:44.350Z,27.28
2018-08-08T20:20:13.558Z,27.24
2018-08-08T20:22:42.732Z,27.24
2018-08-08T20:25:12.163Z,27.24
2018-08-08T20:27:41.173Z,27.28
2018-08-08T20:30:10.834Z,27.33
2018-08-08T20:32:40.017Z,27.32
2018-08-08T20:35:09.293Z,27.33
2018-08-08T20:37:38.508Z,27.42
2018-08-08T20:40:07.836Z,27.49
2018-08-08T20:42:37.029Z,27.44
2018-08-08T20:45:06.341Z,27.45
2018-08-08T20:47:35.518Z,27.44
2018-08-08T20:50:04.754Z,27.40
2018-08-08T20:52:33.925Z,27.38
2018-08-08T20:55:03.152Z,27.35
2018-08-08T20:57:32.820Z,27.30
2018-08-08T21:00:02.588Z,27.31
2018-08-08T21:02:31.861Z,27.30
2018-08-08T21:05:01.389Z,27.31
2018-08-08T21:07:30.685Z,27.28
2018-08-08T21:09:59.881Z,27.26
2018-08-08T21:12:29.042Z,27.19
2018-08-08T21:14:58.219Z,27.10
2018-08-08T21:17:27.363Z,27.02
2018-08-08T21:19:56.503Z,26.94
2018-08-08T21:22:25.655Z,26.88
2018-08-08T21:24:54.788Z,26.85
2018-08-08T21:27:23.996Z,26.77
2018-08-08T21:29:53.176Z,26.71
2018-08-08T21:32:22.913Z,26.60
2018-08-08T21:34:52.067Z,26.48
2018-08-08T21:37:21.212Z,26.40
2018-08-08T21:39:50.450Z,26.29
2018-08-08T21:42:19.592Z,26.12
2018-08-08T21:44:49.973Z,25.97
2018-08-08T21:47:19.142Z,25.87
2018-08-08T21:49:48.357Z,25.79
2018-08-08T21:52:17.616Z,25.73
2018-08-08T21:54:57.899Z,25.77
2018-08-08T21:57:38.176Z,25.80
2018-08-08T22:00:18.848Z,25.76
2018-08-08T22:03:01.587Z,25.69
2018-08-08T22:05:41.831Z,25.55
2018-08-08T22:08:21.993Z,25.45
2018-08-08T22:11:07.328Z,25.40
2018-08-08T22:13:47.511Z,25.36
2018-08-08T22:17:30.550Z,25.32
2018-08-08T22:19:59.810Z,25.29
2018-08-08T22:22:29.051Z,25.25
2018-08-08T22:24:58.215Z,25.19
2018-08-08T22:27:35.132Z,25.18
2018-08-08T22:30:04.887Z,25.20
2018-08-08T22:32:34.071Z,25.26
2018-08-08T22:35:03.306Z,25.46
2018-08-08T22:37:32.664Z,25.57
2018-08-08T22:40:01.901Z,25.76
2018-08-08T22:42:31.089Z,25.80
2018-08-08T22:45:00.221Z,25.75
2018-08-08T22:47:29.507Z,25.75
2018-08-08T22:49:58.678Z,25.67
2018-08-08T22:52:31.732Z,25.55
2018-08-08T22:55:00.955Z,25.54
2018-08-08T22:57:30.200Z,25.43
2018-08-08T22:59:59.958Z,25.34
2018-08-08T23:02:29.175Z,25.24
2018-08-08T23:04:58.338Z,25.12
2018-08-08T23:07:27.519Z,25.19
2018-08-08T23:09:56.714Z,25.11
2018-08-08T23:12:25.888Z,25.04
2018-08-08T23:14:55.114Z,25.06
2018-08-08T23:17:24.497Z,24.90
2018-08-08T23:19:53.657Z,24.82
2018-08-08T23:22:33.961Z,24.73
2018-08-08T23:25:03.170Z,24.64
2018-08-08T23:27:32.319Z,24.54
2018-08-08T23:30:01.557Z,24.48
2018-08-08T23:32:30.733Z,24.37
2018-08-08T23:34:59.893Z,24.28
2018-08-08T23:37:29.098Z,24.20
2018-08-08T23:39:58.329Z,24.17
2018-08-08T23:42:27.522Z,24.13
2018-08-08T23:44:56.693Z,24.08
2018-08-08T23:47:25.885Z,24.02
2018-08-08T23:49:55.164Z,23.97
2018-08-08T23:52:24.422Z,23.93
2018-08-08T23:54:53.667Z,23.86
2018-08-08T23:57:22.885Z,23.82
2018-08-08T23:59:52.074Z,23.79
